Fairfield, Mississippi
Current Conditions -  °F | °C
As of 5:53 PM on Wednesday 22 Oct 2014 (Local Time) from KTUP Reporting Station
Clear Clear  
Wind Chill: 63°   Ceiling: Unl
Heat Index: 63°   Visibility: 10mi
Dew Point: 42°   Wind: 7mph
Humidity: 46%   Direction: 60°ENE
Pressure: 30.15"   Gusts: NA
Location:  34.4333°N, 88.8629°W
Report Text: KTUP 222253Z AUTO 06006KT 10SM CLR 17/06 A3015 RMK AO2 SLP207 T01720056 PWINO
Loading
Personal Weather Stations






























Interactive Weather Map
Tropical Storm Tracking
New forecast layout! Learn more

10-Day Weather Forecast

Advertisements
Track Severe Weather on mobile